sensor_id;sensor_type;location;lat;lon;timestamp;temperature;humidity
20045;DHT22;10183;47.808;9.476;2022-10-16T00:01:15;12.00;99.90
20045;DHT22;10183;47.808;9.476;2022-10-16T00:03:43;12.00;99.90
20045;DHT22;10183;47.808;9.476;2022-10-16T00:06:10;11.90;99.90
20045;DHT22;10183;47.808;9.476;2022-10-16T00:08:37;11.90;99.90
20045;DHT22;10183;47.808;9.476;2022-10-16T00:11:04;11.90;99.90
20045;DHT22;10183;47.808;9.476;2022-10-16T00:13:31;11.90;99.90
20045;DHT22;10183;47.808;9.476;2022-10-16T00:15:59;11.90;99.90
20045;DHT22;10183;47.808;9.476;2022-10-16T00:18:26;11.80;99.90
20045;DHT22;10183;47.808;9.476;2022-10-16T00:20:53;11.80;99.90
20045;DHT22;10183;47.808;9.476;2022-10-16T00:23:20;11.80;99.90
20045;DHT22;10183;47.808;9.476;2022-10-16T00:26:01;11.80;99.90
20045;DHT22;10183;47.808;9.476;2022-10-16T00:28:27;11.70;99.90
20045;DHT22;10183;47.808;9.476;2022-10-16T00:30:54;11.80;99.90
20045;DHT22;10183;47.808;9.476;2022-10-16T00:33:20;11.80;99.90
20045;DHT22;10183;47.808;9.476;2022-10-16T00:35:47;11.90;99.90
20045;DHT22;10183;47.808;9.476;2022-10-16T00:38:14;11.90;99.90
20045;DHT22;10183;47.808;9.476;2022-10-16T00:40:40;11.90;99.90
20045;DHT22;10183;47.808;9.476;2022-10-16T00:43:40;11.90;99.90
20045;DHT22;10183;47.808;9.476;2022-10-16T00:46:20;12.00;99.90
20045;DHT22;10183;47.808;9.476;2022-10-16T00:49:04;12.10;99.90
20045;DHT22;10183;47.808;9.476;2022-10-16T00:54:18;12.20;99.90
20045;DHT22;10183;47.808;9.476;2022-10-16T00:56:46;12.10;99.90
20045;DHT22;10183;47.808;9.476;2022-10-16T00:59:24;11.90;99.90
20045;DHT22;10183;47.808;9.476;2022-10-16T01:01:52;11.90;99.90
20045;DHT22;10183;47.808;9.476;2022-10-16T01:04:19;11.90;99.90
20045;DHT22;10183;47.808;9.476;2022-10-16T01:12:18;12.00;99.90
20045;DHT22;10183;47.808;9.476;2022-10-16T01:17:33;12.00;99.90
20045;DHT22;10183;47.808;9.476;2022-10-16T01:20:21;12.10;99.90
20045;DHT22;10183;47.808;9.476;2022-10-16T01:25:47;12.20;99.90
20045;DHT22;10183;47.808;9.476;2022-10-16T01:28:15;12.20;99.90
20045;DHT22;10183;47.808;9.476;2022-10-16T01:30:45;12.20;99.90
20045;DHT22;10183;47.808;9.476;2022-10-16T01:33:17;12.30;99.90
20045;DHT22;10183;47.808;9.476;2022-10-16T01:35:49;12.30;99.90
20045;DHT22;10183;47.808;9.476;2022-10-16T01:40:54;12.30;99.90
20045;DHT22;10183;47.808;9.476;2022-10-16T01:43:28;12.30;99.90
20045;DHT22;10183;47.808;9.476;2022-10-16T01:45:57;12.30;99.90
20045;DHT22;10183;47.808;9.476;2022-10-16T01:48:25;12.30;99.90
20045;DHT22;10183;47.808;9.476;2022-10-16T01:51:05;12.20;99.90
20045;DHT22;10183;47.808;9.476;2022-10-16T01:53:33;12.20;99.90
20045;DHT22;10183;47.808;9.476;2022-10-16T01:56:00;12.20;99.90
20045;DHT22;10183;47.808;9.476;2022-10-16T01:58:30;12.30;99.90
20045;DHT22;10183;47.808;9.476;2022-10-16T02:01:02;12.30;99.90
20045;DHT22;10183;47.808;9.476;2022-10-16T02:03:29;12.40;99.90
20045;DHT22;10183;47.808;9.476;2022-10-16T02:05:56;12.50;99.90
20045;DHT22;10183;47.808;9.476;2022-10-16T02:08:26;12.40;99.90
20045;DHT22;10183;47.808;9.476;2022-10-16T02:10:57;12.40;99.90
20045;DHT22;10183;47.808;9.476;2022-10-16T02:13:37;12.50;99.90
20045;DHT22;10183;47.808;9.476;2022-10-16T02:16:05;12.50;99.90
20045;DHT22;10183;47.808;9.476;2022-10-16T02:18:31;12.60;99.90
20045;DHT22;10183;47.808;9.476;2022-10-16T02:21:02;12.50;99.90
20045;DHT22;10183;47.808;9.476;2022-10-16T02:29:05;12.60;99.90
20045;DHT22;10183;47.808;9.476;2022-10-16T02:31:36;12.60;99.90
20045;DHT22;10183;47.808;9.476;2022-10-16T02:34:03;12.60;99.90
20045;DHT22;10183;47.808;9.476;2022-10-16T02:36:32;12.60;99.90
20045;DHT22;10183;47.808;9.476;2022-10-16T02:39:01;12.60;99.90
20045;DHT22;10183;47.808;9.476;2022-10-16T02:41:30;12.50;99.90
20045;DHT22;10183;47.808;9.476;2022-10-16T02:43:57;12.50;99.90
20045;DHT22;10183;47.808;9.476;2022-10-16T02:46:23;12.50;99.90
20045;DHT22;10183;47.808;9.476;2022-10-16T02:48:49;12.50;99.90
20045;DHT22;10183;47.808;9.476;2022-10-16T02:51:16;12.50;99.90
20045;DHT22;10183;47.808;9.476;2022-10-16T02:53:42;12.50;99.90
20045;DHT22;10183;47.808;9.476;2022-10-16T02:56:08;12.50;99.90
20045;DHT22;10183;47.808;9.476;2022-10-16T02:58:34;12.30;99.90
20045;DHT22;10183;47.808;9.476;2022-10-16T03:01:00;12.10;99.90
20045;DHT22;10183;47.808;9.476;2022-10-16T03:03:26;12.10;99.90
20045;DHT22;10183;47.808;9.476;2022-10-16T03:05:52;12.10;99.90
20045;DHT22;10183;47.808;9.476;2022-10-16T03:08:19;12.10;99.90
20045;DHT22;10183;47.808;9.476;2022-10-16T03:10:50;12.20;99.90
20045;DHT22;10183;47.808;9.476;2022-10-16T03:13:16;12.30;99.90
20045;DHT22;10183;47.808;9.476;2022-10-16T03:15:43;12.30;99.90
20045;DHT22;10183;47.808;9.476;2022-10-16T03:18:09;12.30;99.90
20045;DHT22;10183;47.808;9.476;2022-10-16T03:20:35;12.30;99.90
20045;DHT22;10183;47.808;9.476;2022-10-16T03:23:02;12.30;99.90
20045;DHT22;10183;47.808;9.476;2022-10-16T03:25:28;12.30;99.90
20045;DHT22;10183;47.808;9.476;2022-10-16T03:27:54;12.30;99.90
20045;DHT22;10183;47.808;9.476;2022-10-16T03:30:20;12.30;99.90
20045;DHT22;10183;47.808;9.476;2022-10-16T03:32:47;12.40;99.90
20045;DHT22;10183;47.808;9.476;2022-10-16T03:35:13;12.40;99.90
20045;DHT22;10183;47.808;9.476;2022-10-16T03:37:39;12.40;99.90
20045;DHT22;10183;47.808;9.476;2022-10-16T03:40:05;12.40;99.90
20045;DHT22;10183;47.808;9.476;2022-10-16T03:42:32;12.40;99.90
20045;DHT22;10183;47.808;9.476;2022-10-16T03:44:58;12.40;99.90
20045;DHT22;10183;47.808;9.476;2022-10-16T03:47:24;12.40;99.90
20045;DHT22;10183;47.808;9.476;2022-10-16T03:49:50;12.30;99.90
20045;DHT22;10183;47.808;9.476;2022-10-16T03:52:17;12.20;99.90
20045;DHT22;10183;47.808;9.476;2022-10-16T03:54:43;12.20;99.90
20045;DHT22;10183;47.808;9.476;2022-10-16T03:57:10;12.20;99.90
20045;DHT22;10183;47.808;9.476;2022-10-16T03:59:36;12.20;99.90
20045;DHT22;10183;47.808;9.476;2022-10-16T04:02:03;12.20;99.90
20045;DHT22;10183;47.808;9.476;2022-10-16T04:04:29;12.20;99.90
20045;DHT22;10183;47.808;9.476;2022-10-16T04:06:55;12.20;99.90
20045;DHT22;10183;47.808;9.476;2022-10-16T04:09:21;12.20;99.90
20045;DHT22;10183;47.808;9.476;2022-10-16T04:11:47;12.10;99.90
20045;DHT22;10183;47.808;9.476;2022-10-16T04:14:13;12.10;99.90
20045;DHT22;10183;47.808;9.476;2022-10-16T04:16:40;12.10;99.90
20045;DHT22;10183;47.808;9.476;2022-10-16T04:19:06;12.00;99.90
20045;DHT22;10183;47.808;9.476;2022-10-16T04:21:32;12.00;99.90
20045;DHT22;10183;47.808;9.476;2022-10-16T04:23:58;12.00;99.90
20045;DHT22;10183;47.808;9.476;2022-10-16T04:26:24;12.00;99.90
20045;DHT22;10183;47.808;9.476;2022-10-16T04:28:50;12.00;99.90
20045;DHT22;10183;47.808;9.476;2022-10-16T04:31:17;12.00;99.90
20045;DHT22;10183;47.808;9.476;2022-10-16T04:33:43;12.00;99.90
20045;DHT22;10183;47.808;9.476;2022-10-16T04:36:10;11.90;99.90
20045;DHT22;10183;47.808;9.476;2022-10-16T04:38:36;11.80;99.90
20045;DHT22;10183;47.808;9.476;2022-10-16T04:41:03;11.80;99.90
20045;DHT22;10183;47.808;9.476;2022-10-16T04:43:30;11.70;99.90
20045;DHT22;10183;47.808;9.476;2022-10-16T04:45:56;11.70;99.90
20045;DHT22;10183;47.808;9.476;2022-10-16T04:48:22;11.70;99.90
20045;DHT22;10183;47.808;9.476;2022-10-16T04:50:48;11.70;99.90
20045;DHT22;10183;47.808;9.476;2022-10-16T04:53:15;11.70;99.90
20045;DHT22;10183;47.808;9.476;2022-10-16T04:55:41;11.70;99.90
20045;DHT22;10183;47.808;9.476;2022-10-16T04:58:08;11.80;99.90
20045;DHT22;10183;47.808;9.476;2022-10-16T05:00:34;11.90;99.90
20045;DHT22;10183;47.808;9.476;2022-10-16T05:03:00;11.90;99.90
20045;DHT22;10183;47.808;9.476;2022-10-16T05:05:28;12.00;99.90
20045;DHT22;10183;47.808;9.476;2022-10-16T05:07:54;12.00;99.90
20045;DHT22;10183;47.808;9.476;2022-10-16T05:10:20;12.00;99.90
20045;DHT22;10183;47.808;9.476;2022-10-16T05:12:46;12.00;99.90
20045;DHT22;10183;47.808;9.476;2022-10-16T05:15:13;12.00;99.90
20045;DHT22;10183;47.808;9.476;2022-10-16T05:17:39;12.00;99.90
20045;DHT22;10183;47.808;9.476;2022-10-16T05:20:05;12.00;99.90
20045;DHT22;10183;47.808;9.476;2022-10-16T05:22:32;11.90;99.90
20045;DHT22;10183;47.808;9.476;2022-10-16T05:24:58;11.90;99.90
20045;DHT22;10183;47.808;9.476;2022-10-16T05:27:24;12.00;99.90
20045;DHT22;10183;47.808;9.476;2022-10-16T05:29:50;11.90;99.90
20045;DHT22;10183;47.808;9.476;2022-10-16T05:32:17;11.90;99.90
20045;DHT22;10183;47.808;9.476;2022-10-16T05:34:44;11.90;99.90
20045;DHT22;10183;47.808;9.476;2022-10-16T05:37:11;11.80;99.90
20045;DHT22;10183;47.808;9.476;2022-10-16T05:39:38;11.80;99.90
20045;DHT22;10183;47.808;9.476;2022-10-16T05:42:05;11.90;99.90
20045;DHT22;10183;47.808;9.476;2022-10-16T05:44:31;11.90;99.90
20045;DHT22;10183;47.808;9.476;2022-10-16T05:46:58;11.90;99.90
20045;DHT22;10183;47.808;9.476;2022-10-16T05:49:24;11.90;99.90
20045;DHT22;10183;47.808;9.476;2022-10-16T05:51:50;12.00;99.90
20045;DHT22;10183;47.808;9.476;2022-10-16T05:54:16;11.90;99.90
20045;DHT22;10183;47.808;9.476;2022-10-16T05:56:43;11.90;99.90
20045;DHT22;10183;47.808;9.476;2022-10-16T05:59:09;11.90;99.90
20045;DHT22;10183;47.808;9.476;2022-10-16T06:01:35;12.00;99.90
20045;DHT22;10183;47.808;9.476;2022-10-16T06:04:01;12.00;99.90
20045;DHT22;10183;47.808;9.476;2022-10-16T06:06:28;12.10;99.90
20045;DHT22;10183;47.808;9.476;2022-10-16T06:08:56;12.20;99.90
20045;DHT22;10183;47.808;9.476;2022-10-16T06:11:25;12.20;99.90
20045;DHT22;10183;47.808;9.476;2022-10-16T06:13:53;12.30;99.90
20045;DHT22;10183;47.808;9.476;2022-10-16T06:16:19;12.40;99.90
20045;DHT22;10183;47.808;9.476;2022-10-16T06:18:46;12.50;99.90
20045;DHT22;10183;47.808;9.476;2022-10-16T06:21:17;12.60;99.90
20045;DHT22;10183;47.808;9.476;2022-10-16T06:23:44;12.60;99.90
20045;DHT22;10183;47.808;9.476;2022-10-16T06:26:13;12.70;99.90
20045;DHT22;10183;47.808;9.476;2022-10-16T06:28:40;12.70;99.90
20045;DHT22;10183;47.808;9.476;2022-10-16T06:31:08;12.70;99.90
20045;DHT22;10183;47.808;9.476;2022-10-16T06:33:35;12.70;99.90
20045;DHT22;10183;47.808;9.476;2022-10-16T06:36:06;12.80;99.90
20045;DHT22;10183;47.808;9.476;2022-10-16T06:38:34;12.80;99.90
20045;DHT22;10183;47.808;9.476;2022-10-16T06:41:12;12.90;99.90
20045;DHT22;10183;47.808;9.476;2022-10-16T06:43:38;13.00;99.90
20045;DHT22;10183;47.808;9.476;2022-10-16T06:46:06;13.10;99.90
20045;DHT22;10183;47.808;9.476;2022-10-16T06:48:36;13.20;99.90
20045;DHT22;10183;47.808;9.476;2022-10-16T06:53:38;13.40;99.90
20045;DHT22;10183;47.808;9.476;2022-10-16T06:56:13;13.50;99.90
20045;DHT22;10183;47.808;9.476;2022-10-16T06:58:40;13.60;99.90
20045;DHT22;10183;47.808;9.476;2022-10-16T07:01:07;13.70;99.90
20045;DHT22;10183;47.808;9.476;2022-10-16T07:03:36;13.80;99.90
20045;DHT22;10183;47.808;9.476;2022-10-16T07:06:05;13.90;99.90
20045;DHT22;10183;47.808;9.476;2022-10-16T07:08:33;14.00;99.90
20045;DHT22;10183;47.808;9.476;2022-10-16T07:11:01;14.10;99.90
20045;DHT22;10183;47.808;9.476;2022-10-16T07:13:28;14.10;99.90
20045;DHT22;10183;47.808;9.476;2022-10-16T07:15:55;14.10;99.90
20045;DHT22;10183;47.808;9.476;2022-10-16T07:18:21;14.10;99.90
20045;DHT22;10183;47.808;9.476;2022-10-16T07:20:52;14.30;99.90
20045;DHT22;10183;47.808;9.476;2022-10-16T07:23:18;14.40;99.90
20045;DHT22;10183;47.808;9.476;2022-10-16T07:25:44;14.50;99.90
20045;DHT22;10183;47.808;9.476;2022-10-16T07:28:10;14.60;99.90
20045;DHT22;10183;47.808;9.476;2022-10-16T07:30:37;14.60;99.90
20045;DHT22;10183;47.808;9.476;2022-10-16T07:33:03;14.60;99.90
20045;DHT22;10183;47.808;9.476;2022-10-16T07:35:29;14.50;99.90
20045;DHT22;10183;47.808;9.476;2022-10-16T07:37:55;14.50;99.90
20045;DHT22;10183;47.808;9.476;2022-10-16T07:40:21;14.50;99.90
20045;DHT22;10183;47.808;9.476;2022-10-16T07:42:47;14.50;99.90
20045;DHT22;10183;47.808;9.476;2022-10-16T07:45:14;14.50;99.90
20045;DHT22;10183;47.808;9.476;2022-10-16T07:47:40;14.60;99.90
20045;DHT22;10183;47.808;9.476;2022-10-16T07:50:06;14.60;99.90
20045;DHT22;10183;47.808;9.476;2022-10-16T07:52:32;14.60;99.90
20045;DHT22;10183;47.808;9.476;2022-10-16T07:54:58;14.60;99.90
20045;DHT22;10183;47.808;9.476;2022-10-16T07:57:25;14.60;99.90
20045;DHT22;10183;47.808;9.476;2022-10-16T07:59:51;14.90;99.90
20045;DHT22;10183;47.808;9.476;2022-10-16T08:02:17;15.10;99.90
20045;DHT22;10183;47.808;9.476;2022-10-16T08:04:43;15.30;99.90
20045;DHT22;10183;47.808;9.476;2022-10-16T08:07:09;15.40;99.90
20045;DHT22;10183;47.808;9.476;2022-10-16T08:09:36;15.60;99.90
20045;DHT22;10183;47.808;9.476;2022-10-16T08:12:02;15.80;99.90
20045;DHT22;10183;47.808;9.476;2022-10-16T08:14:28;15.80;99.90
20045;DHT22;10183;47.808;9.476;2022-10-16T08:16:54;15.70;99.90
20045;DHT22;10183;47.808;9.476;2022-10-16T08:19:21;15.80;99.90
20045;DHT22;10183;47.808;9.476;2022-10-16T08:21:47;15.70;99.90
20045;DHT22;10183;47.808;9.476;2022-10-16T08:24:13;15.60;99.90
20045;DHT22;10183;47.808;9.476;2022-10-16T08:26:40;15.80;99.90
20045;DHT22;10183;47.808;9.476;2022-10-16T08:29:07;16.00;99.90
20045;DHT22;10183;47.808;9.476;2022-10-16T08:31:33;16.30;99.90
20045;DHT22;10183;47.808;9.476;2022-10-16T08:33:59;16.80;99.90
20045;DHT22;10183;47.808;9.476;2022-10-16T08:36:25;16.60;99.90
20045;DHT22;10183;47.808;9.476;2022-10-16T08:38:52;16.90;99.90
20045;DHT22;10183;47.808;9.476;2022-10-16T08:47:26;17.80;99.90
20045;DHT22;10183;47.808;9.476;2022-10-16T08:50:27;17.70;99.90
20045;DHT22;10183;47.808;9.476;2022-10-16T08:52:54;18.00;99.90
20045;DHT22;10183;47.808;9.476;2022-10-16T08:57:50;17.70;99.90
20045;DHT22;10183;47.808;9.476;2022-10-16T09:00:17;17.80;99.90
20045;DHT22;10183;47.808;9.476;2022-10-16T09:14:47;18.10;99.90
20045;DHT22;10183;47.808;9.476;2022-10-16T09:25:31;18.30;99.90
20045;DHT22;10183;47.808;9.476;2022-10-16T09:27:58;18.30;99.90
20045;DHT22;10183;47.808;9.476;2022-10-16T09:30:28;18.50;99.90
20045;DHT22;10183;47.808;9.476;2022-10-16T09:32:57;19.10;99.90
20045;DHT22;10183;47.808;9.476;2022-10-16T09:35:39;19.20;99.90
20045;DHT22;10183;47.808;9.476;2022-10-16T09:38:06;19.70;99.90
20045;DHT22;10183;47.808;9.476;2022-10-16T09:40:37;19.10;99.90
20045;DHT22;10183;47.808;9.476;2022-10-16T09:43:25;19.30;99.90
20045;DHT22;10183;47.808;9.476;2022-10-16T09:45:57;19.20;99.90
20045;DHT22;10183;47.808;9.476;2022-10-16T09:48:31;19.50;99.90
20045;DHT22;10183;47.808;9.476;2022-10-16T09:51:00;19.50;99.90
20045;DHT22;10183;47.808;9.476;2022-10-16T09:53:44;19.00;99.90
20045;DHT22;10183;47.808;9.476;2022-10-16T09:56:20;19.10;99.90
20045;DHT22;10183;47.808;9.476;2022-10-16T09:58:52;18.80;99.90
20045;DHT22;10183;47.808;9.476;2022-10-16T10:01:19;18.90;99.90
20045;DHT22;10183;47.808;9.476;2022-10-16T10:03:46;18.80;99.90
20045;DHT22;10183;47.808;9.476;2022-10-16T10:06:29;19.20;99.90
20045;DHT22;10183;47.808;9.476;2022-10-16T10:09:20;19.20;99.90
20045;DHT22;10183;47.808;9.476;2022-10-16T10:11:58;19.40;99.90
20045;DHT22;10183;47.808;9.476;2022-10-16T10:22:24;19.70;99.90
20045;DHT22;10183;47.808;9.476;2022-10-16T10:25:39;19.80;99.90
20045;DHT22;10183;47.808;9.476;2022-10-16T10:33:49;19.80;99.90
20045;DHT22;10183;47.808;9.476;2022-10-16T10:36:34;19.80;99.90
20045;DHT22;10183;47.808;9.476;2022-10-16T10:45:11;19.90;99.90
20045;DHT22;10183;47.808;9.476;2022-10-16T10:47:31;19.50;99.90
20045;DHT22;10183;47.808;9.476;2022-10-16T10:50:07;19.50;99.90
20045;DHT22;10183;47.808;9.476;2022-10-16T10:52:59;19.30;99.90
20045;DHT22;10183;47.808;9.476;2022-10-16T11:07:12;20.50;99.90
20045;DHT22;10183;47.808;9.476;2022-10-16T11:09:46;20.50;99.90
20045;DHT22;10183;47.808;9.476;2022-10-16T11:12:24;20.50;99.90
20045;DHT22;10183;47.808;9.476;2022-10-16T11:15:00;20.90;99.90
20045;DHT22;10183;47.808;9.476;2022-10-16T11:17:39;21.10;99.90
20045;DHT22;10183;47.808;9.476;2022-10-16T11:20:21;21.60;99.90
20045;DHT22;10183;47.808;9.476;2022-10-16T11:22:56;22.00;99.90
20045;DHT22;10183;47.808;9.476;2022-10-16T11:25:30;22.70;99.90
20045;DHT22;10183;47.808;9.476;2022-10-16T11:30:30;24.20;99.90
20045;DHT22;10183;47.808;9.476;2022-10-16T11:35:44;25.20;99.90
20045;DHT22;10183;47.808;9.476;2022-10-16T11:41:08;27.00;99.90
20045;DHT22;10183;47.808;9.476;2022-10-16T11:43:40;29.10;99.90
20045;DHT22;10183;47.808;9.476;2022-10-16T11:46:18;30.70;90.50
20045;DHT22;10183;47.808;9.476;2022-10-16T11:48:56;28.00;91.10
20045;DHT22;10183;47.808;9.476;2022-10-16T11:51:31;27.10;99.90
20045;DHT22;10183;47.808;9.476;2022-10-16T11:54:08;29.00;91.70
20045;DHT22;10183;47.808;9.476;2022-10-16T11:56:38;28.90;86.70
20045;DHT22;10183;47.808;9.476;2022-10-16T12:02:36;26.60;97.60
20045;DHT22;10183;47.808;9.476;2022-10-16T12:05:22;25.50;99.90
20045;DHT22;10183;47.808;9.476;2022-10-16T12:08:01;24.00;99.80
20045;DHT22;10183;47.808;9.476;2022-10-16T12:10:29;24.30;99.90
20045;DHT22;10183;47.808;9.476;2022-10-16T12:13:29;24.50;99.90
20045;DHT22;10183;47.808;9.476;2022-10-16T12:18:43;23.50;99.90
20045;DHT22;10183;47.808;9.476;2022-10-16T12:21:10;23.30;99.90
20045;DHT22;10183;47.808;9.476;2022-10-16T12:23:51;23.40;99.90
20045;DHT22;10183;47.808;9.476;2022-10-16T12:26:36;23.30;99.90
20045;DHT22;10183;47.808;9.476;2022-10-16T12:29:14;24.00;99.90
20045;DHT22;10183;47.808;9.476;2022-10-16T12:31:47;24.70;99.90
20045;DHT22;10183;47.808;9.476;2022-10-16T12:34:26;24.40;99.90
20045;DHT22;10183;47.808;9.476;2022-10-16T12:36:54;24.20;99.90
20045;DHT22;10183;47.808;9.476;2022-10-16T12:39:27;23.40;99.90
20045;DHT22;10183;47.808;9.476;2022-10-16T12:42:04;23.50;99.90
20045;DHT22;10183;47.808;9.476;2022-10-16T12:44:35;23.40;99.90
20045;DHT22;10183;47.808;9.476;2022-10-16T12:47:02;23.60;99.90
20045;DHT22;10183;47.808;9.476;2022-10-16T12:49:34;23.50;99.90
20045;DHT22;10183;47.808;9.476;2022-10-16T12:52:02;23.80;99.90
20045;DHT22;10183;47.808;9.476;2022-10-16T12:54:37;24.40;99.90
20045;DHT22;10183;47.808;9.476;2022-10-16T13:12:52;32.00;79.20
20045;DHT22;10183;47.808;9.476;2022-10-16T13:15:28;29.70;78.20
20045;DHT22;10183;47.808;9.476;2022-10-16T13:23:58;39.10;44.50
20045;DHT22;10183;47.808;9.476;2022-10-16T13:29:13;37.40;36.60
20045;DHT22;10183;47.808;9.476;2022-10-16T13:31:40;33.30;43.30
20045;DHT22;10183;47.808;9.476;2022-10-16T13:34:14;32.00;47.40
20045;DHT22;10183;47.808;9.476;2022-10-16T13:36:47;30.90;49.50
20045;DHT22;10183;47.808;9.476;2022-10-16T13:42:10;32.00;49.40
20045;DHT22;10183;47.808;9.476;2022-10-16T13:44:50;31.90;47.90
20045;DHT22;10183;47.808;9.476;2022-10-16T13:47:28;31.60;50.80
20045;DHT22;10183;47.808;9.476;2022-10-16T13:50:05;29.30;55.30
20045;DHT22;10183;47.808;9.476;2022-10-16T13:52:32;29.90;59.70
20045;DHT22;10183;47.808;9.476;2022-10-16T13:54:58;32.00;60.90
20045;DHT22;10183;47.808;9.476;2022-10-16T13:57:25;33.30;51.60
20045;DHT22;10183;47.808;9.476;2022-10-16T13:59:52;34.50;48.20
20045;DHT22;10183;47.808;9.476;2022-10-16T14:02:25;35.20;42.90
20045;DHT22;10183;47.808;9.476;2022-10-16T14:04:53;36.00;41.60
20045;DHT22;10183;47.808;9.476;2022-10-16T14:07:24;36.90;42.10
20045;DHT22;10183;47.808;9.476;2022-10-16T14:09:53;37.30;39.50
20045;DHT22;10183;47.808;9.476;2022-10-16T14:12:21;35.80;37.60
20045;DHT22;10183;47.808;9.476;2022-10-16T14:14:51;36.50;37.40
20045;DHT22;10183;47.808;9.476;2022-10-16T14:17:26;37.20;36.90
20045;DHT22;10183;47.808;9.476;2022-10-16T14:19:55;37.60;38.70
20045;DHT22;10183;47.808;9.476;2022-10-16T14:22:37;38.30;34.70
20045;DHT22;10183;47.808;9.476;2022-10-16T14:28:02;39.00;32.30
20045;DHT22;10183;47.808;9.476;2022-10-16T14:30:31;38.30;33.10
20045;DHT22;10183;47.808;9.476;2022-10-16T14:33:04;38.00;34.80
20045;DHT22;10183;47.808;9.476;2022-10-16T14:35:37;37.80;36.00
20045;DHT22;10183;47.808;9.476;2022-10-16T14:38:04;38.30;35.60
20045;DHT22;10183;47.808;9.476;2022-10-16T14:40:33;38.50;33.30
20045;DHT22;10183;47.808;9.476;2022-10-16T14:43:01;38.50;33.90
20045;DHT22;10183;47.808;9.476;2022-10-16T14:45:30;38.10;32.20
20045;DHT22;10183;47.808;9.476;2022-10-16T14:47:59;38.00;32.40
20045;DHT22;10183;47.808;9.476;2022-10-16T14:50:26;37.70;31.70
20045;DHT22;10183;47.808;9.476;2022-10-16T14:52:52;37.00;33.20
20045;DHT22;10183;47.808;9.476;2022-10-16T14:55:19;36.30;35.20
20045;DHT22;10183;47.808;9.476;2022-10-16T14:57:46;35.30;38.60
20045;DHT22;10183;47.808;9.476;2022-10-16T15:00:30;34.60;41.70
20045;DHT22;10183;47.808;9.476;2022-10-16T15:02:56;34.70;40.80
20045;DHT22;10183;47.808;9.476;2022-10-16T15:05:25;34.40;42.20
20045;DHT22;10183;47.808;9.476;2022-10-16T15:07:53;33.90;44.20
20045;DHT22;10183;47.808;9.476;2022-10-16T15:10:24;33.10;46.30
20045;DHT22;10183;47.808;9.476;2022-10-16T15:12:51;32.00;49.50
20045;DHT22;10183;47.808;9.476;2022-10-16T15:15:30;30.80;53.70
20045;DHT22;10183;47.808;9.476;2022-10-16T15:17:58;30.20;57.90
20045;DHT22;10183;47.808;9.476;2022-10-16T15:20:29;29.80;60.80
20045;DHT22;10183;47.808;9.476;2022-10-16T15:22:56;29.80;69.70
20045;DHT22;10183;47.808;9.476;2022-10-16T15:25:38;29.90;71.10
20045;DHT22;10183;47.808;9.476;2022-10-16T15:28:08;30.00;69.20
20045;DHT22;10183;47.808;9.476;2022-10-16T15:30:36;30.10;70.10
20045;DHT22;10183;47.808;9.476;2022-10-16T15:33:03;29.90;69.60
20045;DHT22;10183;47.808;9.476;2022-10-16T15:35:30;30.00;74.50
20045;DHT22;10183;47.808;9.476;2022-10-16T15:37:57;29.90;78.80
20045;DHT22;10183;47.808;9.476;2022-10-16T15:40:23;29.40;84.10
20045;DHT22;10183;47.808;9.476;2022-10-16T15:42:50;28.40;90.80
20045;DHT22;10183;47.808;9.476;2022-10-16T15:45:16;27.90;97.30
20045;DHT22;10183;47.808;9.476;2022-10-16T15:47:43;27.60;99.90
20045;DHT22;10183;47.808;9.476;2022-10-16T15:50:11;27.50;99.90
20045;DHT22;10183;47.808;9.476;2022-10-16T15:52:39;27.40;99.90
20045;DHT22;10183;47.808;9.476;2022-10-16T15:55:14;27.10;99.90
20045;DHT22;10183;47.808;9.476;2022-10-16T15:57:41;26.70;99.90
20045;DHT22;10183;47.808;9.476;2022-10-16T16:00:14;26.10;99.90
20045;DHT22;10183;47.808;9.476;2022-10-16T16:02:41;25.50;99.90
20045;DHT22;10183;47.808;9.476;2022-10-16T16:05:09;25.10;99.90
20045;DHT22;10183;47.808;9.476;2022-10-16T16:07:37;24.80;99.90
20045;DHT22;10183;47.808;9.476;2022-10-16T16:10:06;24.50;99.90
20045;DHT22;10183;47.808;9.476;2022-10-16T16:12:33;24.20;99.90
20045;DHT22;10183;47.808;9.476;2022-10-16T16:14:59;23.90;99.90
20045;DHT22;10183;47.808;9.476;2022-10-16T16:17:25;23.30;99.90
20045;DHT22;10183;47.808;9.476;2022-10-16T16:19:51;22.70;99.90
20045;DHT22;10183;47.808;9.476;2022-10-16T16:22:18;22.10;99.90
20045;DHT22;10183;47.808;9.476;2022-10-16T16:24:44;21.50;99.90
20045;DHT22;10183;47.808;9.476;2022-10-16T16:27:10;20.90;99.90
20045;DHT22;10183;47.808;9.476;2022-10-16T16:29:36;20.50;99.90
20045;DHT22;10183;47.808;9.476;2022-10-16T16:32:03;20.10;99.90
20045;DHT22;10183;47.808;9.476;2022-10-16T16:34:29;19.80;99.90
20045;DHT22;10183;47.808;9.476;2022-10-16T16:36:56;19.40;99.90
20045;DHT22;10183;47.808;9.476;2022-10-16T16:39:23;19.00;99.90
20045;DHT22;10183;47.808;9.476;2022-10-16T16:41:49;18.80;99.90
20045;DHT22;10183;47.808;9.476;2022-10-16T16:44:17;18.40;99.90
20045;DHT22;10183;47.808;9.476;2022-10-16T16:46:44;18.20;99.90
20045;DHT22;10183;47.808;9.476;2022-10-16T16:49:12;18.00;99.90
20045;DHT22;10183;47.808;9.476;2022-10-16T16:51:39;17.70;99.90
20045;DHT22;10183;47.808;9.476;2022-10-16T16:54:06;17.40;99.90
20045;DHT22;10183;47.808;9.476;2022-10-16T16:56:33;17.10;99.90
20045;DHT22;10183;47.808;9.476;2022-10-16T16:58:59;17.00;99.90
20045;DHT22;10183;47.808;9.476;2022-10-16T17:01:27;16.80;99.90
20045;DHT22;10183;47.808;9.476;2022-10-16T17:03:55;16.60;99.90
20045;DHT22;10183;47.808;9.476;2022-10-16T17:06:24;16.40;99.90
20045;DHT22;10183;47.808;9.476;2022-10-16T17:08:50;16.30;99.90
20045;DHT22;10183;47.808;9.476;2022-10-16T17:11:19;16.20;99.90
20045;DHT22;10183;47.808;9.476;2022-10-16T17:13:46;15.80;99.90
20045;DHT22;10183;47.808;9.476;2022-10-16T17:16:12;15.60;99.90
20045;DHT22;10183;47.808;9.476;2022-10-16T17:18:38;15.50;99.90
20045;DHT22;10183;47.808;9.476;2022-10-16T17:21:08;15.40;99.90
20045;DHT22;10183;47.808;9.476;2022-10-16T17:23:35;15.20;99.90
20045;DHT22;10183;47.808;9.476;2022-10-16T17:28:30;15.00;99.90
20045;DHT22;10183;47.808;9.476;2022-10-16T17:31:08;14.90;99.90
20045;DHT22;10183;47.808;9.476;2022-10-16T17:33:35;14.90;99.90
20045;DHT22;10183;47.808;9.476;2022-10-16T17:36:01;14.90;99.90
20045;DHT22;10183;47.808;9.476;2022-10-16T17:38:27;14.80;99.90
20045;DHT22;10183;47.808;9.476;2022-10-16T17:40:54;14.70;99.90
20045;DHT22;10183;47.808;9.476;2022-10-16T17:43:20;14.70;99.90
20045;DHT22;10183;47.808;9.476;2022-10-16T17:45:46;14.70;99.90
20045;DHT22;10183;47.808;9.476;2022-10-16T17:48:12;14.60;99.90
20045;DHT22;10183;47.808;9.476;2022-10-16T17:50:40;14.60;99.90
20045;DHT22;10183;47.808;9.476;2022-10-16T17:53:06;14.50;99.90
20045;DHT22;10183;47.808;9.476;2022-10-16T17:55:40;14.50;99.90